Dallas, Texas
Traffic Map
Current Weather Conditions
Dallas, Texas
Clear
Clear
30°
Feels Like: 30°
Wind Chill: 30° Ceiling: Unl
Heat Index: 30° Visibility: 10mi
Dew Point: 16° Wind: 7mph
Humidity: 43% Direction: 200° (SSW)
Pressure: 30.08in Gusts: 0mph
Raw Report DataKDAL 251953Z 20006KT 10SM CLR 30/16 A3008 RMK AO2 SLP178 T03000161
Traffic Incident Summary
Active as of:
Severity:
Category:
InformationThere was an issue retrieving the traffic information for this location. Please try a different location or try again shortly.
Advertisements
Track Severe Weather on mobile